Observations for Trim Patrick St
| Time | AQI | Temp °C | Hum % | Pres Pa | CO μg/m³ | H₂S μg/m³ | NO μg/m³ | NO₂ μg/m³ | O₃ μg/m³ | SO₂ μg/m³ | PM1 μg/m³ | PM2.5 μg/m³ | PM10 μg/m³ |
|---|---|---|---|---|---|---|---|---|---|---|---|---|---|
| Friday 31 July 2026 | |||||||||||||
| 02:33 | 2 | 11.8 | 75 | 38,460 | 0.38 | 5.11 | 4.01 | 20.44 | 41.44 | 0 | 10.57 | 14.04 | 15.44 |
| 02:32 | 2 | 11.8 | 73 | 38,460 | 0.37 | 4.42 | 4.03 | 20.31 | 44.03 | 0 | 8 | 13.5 | 14.86 |
| 02:31 | 2 | 11.8 | 75 | 38,460 | 0.38 | 4.93 | 4.08 | 22.21 | 43.9 | 0 | 9.71 | 16.22 | 17.84 |
| 02:30 | 2 | 11.8 | 74 | 38,460 | 0.38 | 5.81 | 4.02 | 20.83 | 45.51 | 0 | 8 | 13.45 | 14.8 |
| 02:29 | 2 | 11.8 | 75 | 38,460 | 0.39 | 6.25 | 3.99 | 25.27 | 47.79 | 0 | 7.14 | 11.22 | 12.34 |
| 02:28 | 2 | 11.8 | 75 | 38,460 | 0.35 | 5.94 | 4.02 | 24.43 | 48.07 | 0 | 7.14 | 13.34 | 14.67 |
| 02:27 | 2 | 11.8 | 74 | 38,460 | 0.34 | 5.97 | 4.07 | 25.47 | 45.57 | 0 | 8 | 13.48 | 14.83 |
| 02:26 | 2 | 11.8 | 74 | 38,460 | 0.33 | 6.07 | 4.06 | 20.84 | 44.27 | 0 | 7.14 | 11.31 | 12.45 |
| 02:25 | 2 | 11.9 | 74 | 38,460 | 0.33 | 5.79 | 4.05 | 25.41 | 45.06 | 0 | 6.29 | 12.76 | 14.03 |
| 02:24 | 2 | 11.9 | 74 | 38,460 | 0.32 | 6.51 | 4.04 | 22.93 | 47.42 | 0 | 6.29 | 12.7 | 13.97 |
| 02:23 | 2 | 11.9 | 73 | 38,460 | 0.33 | 7.7 | 4.03 | 35.22 | 47.87 | 0 | 5.43 | 9.97 | 10.97 |
| 02:22 | 2 | 11.9 | 73 | 38,460 | 0.32 | 5.32 | 4.03 | 22.51 | 45.72 | 0 | 5.43 | 10.71 | 11.78 |
| 02:21 | 2 | 11.9 | 74 | 38,460 | 0.31 | 4.76 | 4.05 | 23.69 | 45.81 | 0 | 8 | 12.75 | 14.02 |
| 02:20 | 2 | 11.9 | 73 | 38,460 | 0.31 | 5.04 | 3.99 | 17.42 | 31.19 | 0 | 5.43 | 9.98 | 10.98 |
| 02:19 | 2 | 11.9 | 74 | 38,460 | 0.31 | 6.13 | 3.94 | 29.53 | 47.79 | 0 | 5.43 | 9.86 | 10.84 |
| 02:18 | 2 | 12 | 74 | 38,460 | 0.3 | 4.78 | 3.88 | 19.66 | 42.81 | 0 | 4.57 | 8.46 | 9.3 |
| 02:17 | 2 | 12 | 73 | 38,460 | 0.31 | 5.77 | 3.87 | 26.94 | 46.88 | 0 | 5.43 | 9.26 | 10.18 |
| 02:16 | 2 | 12 | 72 | 38,460 | 0.29 | 5.64 | 3.87 | 24.51 | 44.05 | 0 | 4.57 | 9.35 | 10.28 |
| 02:15 | 2 | 12 | 73 | 38,460 | 0.3 | 4.89 | 3.97 | 19.76 | 32.77 | 0 | 4.57 | 7.82 | 8.6 |
| 02:14 | 2 | 12 | 74 | 38,460 | 0.29 | 5.2 | 4.02 | 28.49 | 46.88 | 0 | 4.57 | 8.44 | 9.28 |